sensor_id;sensor_type;location;lat;lon;timestamp;temperature;humidity
1129;DHT22;553;51.038;7.216;2023-06-24T00:00:07;19.10;99.60
1129;DHT22;553;51.038;7.216;2023-06-24T00:02:35;19.10;99.40
1129;DHT22;553;51.038;7.216;2023-06-24T00:05:04;19.10;99.30
1129;DHT22;553;51.038;7.216;2023-06-24T00:07:31;19.00;99.80
1129;DHT22;553;51.038;7.216;2023-06-24T00:09:58;19.00;99.90
1129;DHT22;553;51.038;7.216;2023-06-24T00:12:25;18.80;99.90
1129;DHT22;553;51.038;7.216;2023-06-24T00:14:53;18.90;99.90
1129;DHT22;553;51.038;7.216;2023-06-24T00:17:20;18.90;99.80
1129;DHT22;553;51.038;7.216;2023-06-24T00:19:46;18.90;99.70
1129;DHT22;553;51.038;7.216;2023-06-24T00:22:13;18.80;99.70
1129;DHT22;553;51.038;7.216;2023-06-24T00:24:41;18.90;99.90
1129;DHT22;553;51.038;7.216;2023-06-24T00:27:09;18.80;99.90
1129;DHT22;553;51.038;7.216;2023-06-24T00:29:36;18.80;99.80
1129;DHT22;553;51.038;7.216;2023-06-24T00:32:04;18.80;99.80
1129;DHT22;553;51.038;7.216;2023-06-24T00:34:31;18.70;99.90
1129;DHT22;553;51.038;7.216;2023-06-24T00:36:58;18.60;99.90
1129;DHT22;553;51.038;7.216;2023-06-24T00:39:26;18.50;99.90
1129;DHT22;553;51.038;7.216;2023-06-24T00:41:53;18.50;99.90
1129;DHT22;553;51.038;7.216;2023-06-24T00:44:21;18.50;99.90
1129;DHT22;553;51.038;7.216;2023-06-24T00:46:47;18.50;99.90
1129;DHT22;553;51.038;7.216;2023-06-24T00:49:16;18.50;99.90
1129;DHT22;553;51.038;7.216;2023-06-24T00:51:42;18.50;99.90
1129;DHT22;553;51.038;7.216;2023-06-24T00:54:14;18.30;99.90
1129;DHT22;553;51.038;7.216;2023-06-24T00:56:41;18.30;99.90
1129;DHT22;553;51.038;7.216;2023-06-24T00:59:15;18.40;99.90
1129;DHT22;553;51.038;7.216;2023-06-24T01:01:41;18.40;99.90
1129;DHT22;553;51.038;7.216;2023-06-24T01:04:09;18.40;99.90
1129;DHT22;553;51.038;7.216;2023-06-24T01:06:36;18.40;99.90
1129;DHT22;553;51.038;7.216;2023-06-24T01:09:10;18.30;99.90
1129;DHT22;553;51.038;7.216;2023-06-24T01:11:38;18.20;99.90
1129;DHT22;553;51.038;7.216;2023-06-24T01:14:05;18.20;99.90
1129;DHT22;553;51.038;7.216;2023-06-24T01:28:30;17.90;99.90
1129;DHT22;553;51.038;7.216;2023-06-24T01:33:58;17.90;99.90
1129;DHT22;553;51.038;7.216;2023-06-24T01:36:28;17.90;99.90
1129;DHT22;553;51.038;7.216;2023-06-24T01:39:01;17.90;99.90
1129;DHT22;553;51.038;7.216;2023-06-24T01:41:36;17.90;99.90
1129;DHT22;553;51.038;7.216;2023-06-24T01:44:10;17.90;99.90
1129;DHT22;553;51.038;7.216;2023-06-24T01:46:42;18.00;99.90
1129;DHT22;553;51.038;7.216;2023-06-24T01:49:13;17.80;99.90
1129;DHT22;553;51.038;7.216;2023-06-24T01:51:42;17.80;99.90
1129;DHT22;553;51.038;7.216;2023-06-24T01:54:17;17.60;99.90
1129;DHT22;553;51.038;7.216;2023-06-24T01:56:49;17.60;99.90
1129;DHT22;553;51.038;7.216;2023-06-24T01:59:17;17.60;99.90
1129;DHT22;553;51.038;7.216;2023-06-24T02:01:47;17.60;99.90
1129;DHT22;553;51.038;7.216;2023-06-24T02:04:16;17.60;99.90
1129;DHT22;553;51.038;7.216;2023-06-24T02:06:44;17.60;99.90
1129;DHT22;553;51.038;7.216;2023-06-24T02:09:11;17.60;99.90
1129;DHT22;553;51.038;7.216;2023-06-24T02:11:41;17.60;99.90
1129;DHT22;553;51.038;7.216;2023-06-24T02:14:10;17.60;99.90
1129;DHT22;553;51.038;7.216;2023-06-24T02:16:38;17.60;99.90
1129;DHT22;553;51.038;7.216;2023-06-24T02:19:07;17.60;99.90
1129;DHT22;553;51.038;7.216;2023-06-24T02:21:37;17.60;99.90
1129;DHT22;553;51.038;7.216;2023-06-24T02:24:06;17.60;99.90
1129;DHT22;553;51.038;7.216;2023-06-24T02:26:34;17.60;99.90
1129;DHT22;553;51.038;7.216;2023-06-24T02:29:04;17.60;99.90
1129;DHT22;553;51.038;7.216;2023-06-24T02:31:31;17.60;99.90
1129;DHT22;553;51.038;7.216;2023-06-24T02:33:58;17.60;99.90
1129;DHT22;553;51.038;7.216;2023-06-24T02:36:25;17.60;99.90
1129;DHT22;553;51.038;7.216;2023-06-24T02:38:52;17.60;99.90
1129;DHT22;553;51.038;7.216;2023-06-24T02:41:18;17.60;99.90
1129;DHT22;553;51.038;7.216;2023-06-24T02:43:45;17.50;99.90
1129;DHT22;553;51.038;7.216;2023-06-24T02:46:13;17.50;99.90
1129;DHT22;553;51.038;7.216;2023-06-24T02:48:42;17.50;99.90
1129;DHT22;553;51.038;7.216;2023-06-24T02:51:12;17.50;99.90
1129;DHT22;553;51.038;7.216;2023-06-24T02:53:39;17.50;99.90
1129;DHT22;553;51.038;7.216;2023-06-24T02:56:09;17.50;99.90
1129;DHT22;553;51.038;7.216;2023-06-24T02:58:42;17.50;99.90
1129;DHT22;553;51.038;7.216;2023-06-24T03:01:18;17.50;99.90
1129;DHT22;553;51.038;7.216;2023-06-24T03:03:47;17.50;99.90
1129;DHT22;553;51.038;7.216;2023-06-24T03:06:17;17.50;99.90
1129;DHT22;553;51.038;7.216;2023-06-24T03:08:45;17.40;99.90
1129;DHT22;553;51.038;7.216;2023-06-24T03:11:13;17.40;99.90
1129;DHT22;553;51.038;7.216;2023-06-24T03:13:41;17.50;99.90
1129;DHT22;553;51.038;7.216;2023-06-24T03:16:14;17.50;99.90
1129;DHT22;553;51.038;7.216;2023-06-24T03:18:53;17.40;99.90
1129;DHT22;553;51.038;7.216;2023-06-24T03:21:20;17.40;99.90
1129;DHT22;553;51.038;7.216;2023-06-24T03:23:49;17.40;99.90
1129;DHT22;553;51.038;7.216;2023-06-24T03:26:16;17.40;99.90
1129;DHT22;553;51.038;7.216;2023-06-24T03:28:43;17.40;99.90
1129;DHT22;553;51.038;7.216;2023-06-24T03:31:14;17.30;99.90
1129;DHT22;553;51.038;7.216;2023-06-24T03:33:44;17.20;99.90
1129;DHT22;553;51.038;7.216;2023-06-24T03:36:13;17.30;99.90
1129;DHT22;553;51.038;7.216;2023-06-24T03:38:41;17.30;99.90
1129;DHT22;553;51.038;7.216;2023-06-24T03:41:08;17.30;99.90
1129;DHT22;553;51.038;7.216;2023-06-24T03:43:34;17.30;99.90
1129;DHT22;553;51.038;7.216;2023-06-24T03:46:01;17.40;99.90
1129;DHT22;553;51.038;7.216;2023-06-24T03:48:29;17.30;99.90
1129;DHT22;553;51.038;7.216;2023-06-24T03:50:56;17.40;99.90
1129;DHT22;553;51.038;7.216;2023-06-24T03:53:22;17.40;99.90
1129;DHT22;553;51.038;7.216;2023-06-24T03:55:50;17.40;99.90
1129;DHT22;553;51.038;7.216;2023-06-24T03:58:17;17.40;99.90
1129;DHT22;553;51.038;7.216;2023-06-24T04:00:43;17.30;99.90
1129;DHT22;553;51.038;7.216;2023-06-24T04:03:11;17.40;99.90
1129;DHT22;553;51.038;7.216;2023-06-24T04:05:39;17.40;99.90
1129;DHT22;553;51.038;7.216;2023-06-24T04:08:06;17.40;99.90
1129;DHT22;553;51.038;7.216;2023-06-24T04:10:34;17.40;99.90
1129;DHT22;553;51.038;7.216;2023-06-24T04:13:01;17.50;99.90
1129;DHT22;553;51.038;7.216;2023-06-24T04:15:28;17.50;99.90
1129;DHT22;553;51.038;7.216;2023-06-24T04:17:55;17.50;99.90
1129;DHT22;553;51.038;7.216;2023-06-24T04:20:22;17.50;99.90
1129;DHT22;553;51.038;7.216;2023-06-24T04:22:50;17.60;99.90
1129;DHT22;553;51.038;7.216;2023-06-24T04:25:17;17.60;99.90
1129;DHT22;553;51.038;7.216;2023-06-24T04:27:44;17.70;99.90
1129;DHT22;553;51.038;7.216;2023-06-24T04:30:11;17.70;99.90
1129;DHT22;553;51.038;7.216;2023-06-24T04:32:38;17.80;99.90
1129;DHT22;553;51.038;7.216;2023-06-24T04:35:06;17.90;99.90
1129;DHT22;553;51.038;7.216;2023-06-24T04:37:35;18.00;99.90
1129;DHT22;553;51.038;7.216;2023-06-24T04:40:01;18.10;99.90
1129;DHT22;553;51.038;7.216;2023-06-24T04:42:29;18.10;99.90
1129;DHT22;553;51.038;7.216;2023-06-24T04:44:56;18.10;99.90
1129;DHT22;553;51.038;7.216;2023-06-24T04:47:23;18.10;99.90
1129;DHT22;553;51.038;7.216;2023-06-24T04:49:50;18.20;99.80
1129;DHT22;553;51.038;7.216;2023-06-24T04:52:16;18.20;99.90
1129;DHT22;553;51.038;7.216;2023-06-24T04:54:43;18.30;99.90
1129;DHT22;553;51.038;7.216;2023-06-24T04:57:29;18.40;99.90
1129;DHT22;553;51.038;7.216;2023-06-24T04:59:57;18.50;99.90
1129;DHT22;553;51.038;7.216;2023-06-24T05:02:24;18.50;99.90
1129;DHT22;553;51.038;7.216;2023-06-24T05:04:52;18.60;99.90
1129;DHT22;553;51.038;7.216;2023-06-24T05:07:19;18.70;99.90
1129;DHT22;553;51.038;7.216;2023-06-24T05:09:49;18.70;99.90
1129;DHT22;553;51.038;7.216;2023-06-24T05:12:16;18.90;99.90
1129;DHT22;553;51.038;7.216;2023-06-24T05:14:42;19.00;98.80
1129;DHT22;553;51.038;7.216;2023-06-24T05:17:09;19.10;99.60
1129;DHT22;553;51.038;7.216;2023-06-24T05:19:36;19.20;99.20
1129;DHT22;553;51.038;7.216;2023-06-24T05:22:03;19.30;98.40
1129;DHT22;553;51.038;7.216;2023-06-24T05:24:30;19.30;98.30
1129;DHT22;553;51.038;7.216;2023-06-24T05:26:57;19.60;98.30
1129;DHT22;553;51.038;7.216;2023-06-24T05:29:29;19.70;97.00
1129;DHT22;553;51.038;7.216;2023-06-24T05:31:56;19.80;97.40
1129;DHT22;553;51.038;7.216;2023-06-24T05:34:23;20.00;97.20
1129;DHT22;553;51.038;7.216;2023-06-24T05:36:49;20.20;97.00
1129;DHT22;553;51.038;7.216;2023-06-24T05:39:17;20.30;96.60
1129;DHT22;553;51.038;7.216;2023-06-24T05:41:43;20.40;95.90
1129;DHT22;553;51.038;7.216;2023-06-24T05:44:10;20.50;94.90
1129;DHT22;553;51.038;7.216;2023-06-24T05:46:37;20.70;94.30
1129;DHT22;553;51.038;7.216;2023-06-24T05:49:04;20.80;94.50
1129;DHT22;553;51.038;7.216;2023-06-24T05:51:31;21.00;94.10
1129;DHT22;553;51.038;7.216;2023-06-24T05:53:57;21.20;93.00
1129;DHT22;553;51.038;7.216;2023-06-24T05:56:25;21.10;93.10
1129;DHT22;553;51.038;7.216;2023-06-24T05:58:52;21.20;93.60
1129;DHT22;553;51.038;7.216;2023-06-24T06:01:19;21.40;92.30
1129;DHT22;553;51.038;7.216;2023-06-24T06:03:45;21.50;93.50
1129;DHT22;553;51.038;7.216;2023-06-24T06:06:12;21.70;93.00
1129;DHT22;553;51.038;7.216;2023-06-24T06:08:39;22.00;92.10
1129;DHT22;553;51.038;7.216;2023-06-24T06:11:06;22.20;91.30
1129;DHT22;553;51.038;7.216;2023-06-24T06:13:33;22.30;90.60
1129;DHT22;553;51.038;7.216;2023-06-24T06:16:00;22.50;90.10
1129;DHT22;553;51.038;7.216;2023-06-24T06:18:26;22.60;89.50
1129;DHT22;553;51.038;7.216;2023-06-24T06:20:53;22.60;89.80
1129;DHT22;553;51.038;7.216;2023-06-24T06:23:20;22.70;90.00
1129;DHT22;553;51.038;7.216;2023-06-24T06:25:47;22.90;89.50
1129;DHT22;553;51.038;7.216;2023-06-24T06:28:15;22.70;90.00
1129;DHT22;553;51.038;7.216;2023-06-24T06:30:41;22.90;89.90
1129;DHT22;553;51.038;7.216;2023-06-24T06:33:08;22.90;88.80
1129;DHT22;553;51.038;7.216;2023-06-24T06:35:35;23.00;88.80
1129;DHT22;553;51.038;7.216;2023-06-24T06:38:02;22.80;89.50
1129;DHT22;553;51.038;7.216;2023-06-24T06:40:29;22.80;89.20
1129;DHT22;553;51.038;7.216;2023-06-24T06:42:56;23.00;89.80
1129;DHT22;553;51.038;7.216;2023-06-24T06:45:23;22.90;90.50
1129;DHT22;553;51.038;7.216;2023-06-24T06:47:50;23.10;89.90
1129;DHT22;553;51.038;7.216;2023-06-24T06:50:17;23.40;89.10
1129;DHT22;553;51.038;7.216;2023-06-24T06:52:44;23.50;88.70
1129;DHT22;553;51.038;7.216;2023-06-24T06:55:11;23.90;88.90
1129;DHT22;553;51.038;7.216;2023-06-24T06:57:37;23.90;89.00
1129;DHT22;553;51.038;7.216;2023-06-24T07:00:05;24.00;87.70
1129;DHT22;553;51.038;7.216;2023-06-24T07:02:32;24.20;88.10
1129;DHT22;553;51.038;7.216;2023-06-24T07:04:59;24.40;87.10
1129;DHT22;553;51.038;7.216;2023-06-24T07:07:27;24.60;87.10
1129;DHT22;553;51.038;7.216;2023-06-24T07:09:54;24.70;86.50
1129;DHT22;553;51.038;7.216;2023-06-24T07:12:21;24.70;87.60
1129;DHT22;553;51.038;7.216;2023-06-24T07:14:50;24.80;86.00
1129;DHT22;553;51.038;7.216;2023-06-24T07:17:17;24.70;86.90
1129;DHT22;553;51.038;7.216;2023-06-24T07:19:44;24.90;86.10
1129;DHT22;553;51.038;7.216;2023-06-24T07:22:11;24.80;85.90
1129;DHT22;553;51.038;7.216;2023-06-24T07:24:38;24.60;86.80
1129;DHT22;553;51.038;7.216;2023-06-24T07:27:05;24.40;87.60
1129;DHT22;553;51.038;7.216;2023-06-24T07:29:32;24.20;88.40
1129;DHT22;553;51.038;7.216;2023-06-24T07:31:59;24.20;88.30
1129;DHT22;553;51.038;7.216;2023-06-24T07:34:26;24.00;89.30
1129;DHT22;553;51.038;7.216;2023-06-24T07:36:52;24.10;89.20
1129;DHT22;553;51.038;7.216;2023-06-24T07:39:19;24.00;89.30
1129;DHT22;553;51.038;7.216;2023-06-24T07:41:46;24.20;88.90
1129;DHT22;553;51.038;7.216;2023-06-24T07:44:13;24.50;89.00
1129;DHT22;553;51.038;7.216;2023-06-24T07:46:40;24.50;87.90
1129;DHT22;553;51.038;7.216;2023-06-24T07:49:07;24.30;87.40
1129;DHT22;553;51.038;7.216;2023-06-24T07:51:33;24.20;87.70
1129;DHT22;553;51.038;7.216;2023-06-24T07:54:01;24.10;89.00
1129;DHT22;553;51.038;7.216;2023-06-24T07:56:28;24.20;89.30
1129;DHT22;553;51.038;7.216;2023-06-24T07:58:55;24.30;89.30
1129;DHT22;553;51.038;7.216;2023-06-24T08:01:21;24.50;88.60
1129;DHT22;553;51.038;7.216;2023-06-24T08:03:48;24.60;87.50
1129;DHT22;553;51.038;7.216;2023-06-24T08:06:15;24.90;88.30
1129;DHT22;553;51.038;7.216;2023-06-24T08:08:42;25.10;86.50
1129;DHT22;553;51.038;7.216;2023-06-24T08:11:09;25.50;85.10
1129;DHT22;553;51.038;7.216;2023-06-24T08:13:35;25.80;85.60
1129;DHT22;553;51.038;7.216;2023-06-24T08:16:02;25.90;83.70
1129;DHT22;553;51.038;7.216;2023-06-24T08:18:29;25.90;85.10
1129;DHT22;553;51.038;7.216;2023-06-24T08:20:56;25.80;85.20
1129;DHT22;553;51.038;7.216;2023-06-24T08:23:22;25.90;84.40
1129;DHT22;553;51.038;7.216;2023-06-24T08:25:49;26.00;83.70
1129;DHT22;553;51.038;7.216;2023-06-24T08:28:21;26.20;83.80
1129;DHT22;553;51.038;7.216;2023-06-24T08:30:48;26.00;83.90
1129;DHT22;553;51.038;7.216;2023-06-24T08:33:15;25.90;84.30
1129;DHT22;553;51.038;7.216;2023-06-24T08:35:42;25.90;85.10
1129;DHT22;553;51.038;7.216;2023-06-24T08:38:08;25.80;85.00
1129;DHT22;553;51.038;7.216;2023-06-24T08:40:36;25.80;86.00
1129;DHT22;553;51.038;7.216;2023-06-24T08:43:06;26.10;84.10
1129;DHT22;553;51.038;7.216;2023-06-24T08:45:33;26.50;83.00
1129;DHT22;553;51.038;7.216;2023-06-24T08:48:01;26.50;81.40
1129;DHT22;553;51.038;7.216;2023-06-24T08:50:33;26.90;81.10
1129;DHT22;553;51.038;7.216;2023-06-24T08:53:03;27.00;79.80
1129;DHT22;553;51.038;7.216;2023-06-24T08:55:36;27.10;80.60
1129;DHT22;553;51.038;7.216;2023-06-24T08:58:04;27.20;80.20
1129;DHT22;553;51.038;7.216;2023-06-24T09:00:31;27.30;80.10
1129;DHT22;553;51.038;7.216;2023-06-24T09:02:58;27.00;80.30
1129;DHT22;553;51.038;7.216;2023-06-24T09:05:26;26.90;80.50
1129;DHT22;553;51.038;7.216;2023-06-24T09:07:53;27.10;79.30
1129;DHT22;553;51.038;7.216;2023-06-24T09:10:33;27.30;79.60
1129;DHT22;553;51.038;7.216;2023-06-24T09:13:01;27.00;78.90
1129;DHT22;553;51.038;7.216;2023-06-24T09:15:35;27.10;80.20
1129;DHT22;553;51.038;7.216;2023-06-24T09:18:04;27.40;79.00
1129;DHT22;553;51.038;7.216;2023-06-24T09:20:32;27.80;78.90
1129;DHT22;553;51.038;7.216;2023-06-24T09:23:01;28.00;77.50
1129;DHT22;553;51.038;7.216;2023-06-24T09:25:28;27.90;78.70
1129;DHT22;553;51.038;7.216;2023-06-24T09:27:58;27.50;78.70
1129;DHT22;553;51.038;7.216;2023-06-24T09:30:26;27.90;78.10
1129;DHT22;553;51.038;7.216;2023-06-24T09:32:53;28.10;77.40
1129;DHT22;553;51.038;7.216;2023-06-24T09:35:21;28.00;76.70
1129;DHT22;553;51.038;7.216;2023-06-24T09:37:57;27.90;77.40
1129;DHT22;553;51.038;7.216;2023-06-24T09:40:27;27.60;77.30
1129;DHT22;553;51.038;7.216;2023-06-24T09:42:58;27.50;78.30
1129;DHT22;553;51.038;7.216;2023-06-24T09:45:28;27.50;78.10
1129;DHT22;553;51.038;7.216;2023-06-24T09:47:56;27.80;77.20
1129;DHT22;553;51.038;7.216;2023-06-24T09:50:24;28.00;76.50
1129;DHT22;553;51.038;7.216;2023-06-24T09:52:52;27.90;76.90
1129;DHT22;553;51.038;7.216;2023-06-24T09:55:19;28.10;75.00
1129;DHT22;553;51.038;7.216;2023-06-24T09:57:50;28.00;76.90
1129;DHT22;553;51.038;7.216;2023-06-24T10:00:20;27.70;76.10
1129;DHT22;553;51.038;7.216;2023-06-24T10:02:49;27.80;76.20
1129;DHT22;553;51.038;7.216;2023-06-24T10:05:16;27.70;75.90
1129;DHT22;553;51.038;7.216;2023-06-24T10:07:43;27.60;76.40
1129;DHT22;553;51.038;7.216;2023-06-24T10:10:10;27.60;75.60
1129;DHT22;553;51.038;7.216;2023-06-24T10:12:37;27.50;76.40
1129;DHT22;553;51.038;7.216;2023-06-24T10:15:05;27.80;76.30
1129;DHT22;553;51.038;7.216;2023-06-24T10:17:32;28.00;76.30
1129;DHT22;553;51.038;7.216;2023-06-24T10:20:03;28.20;74.20
1129;DHT22;553;51.038;7.216;2023-06-24T10:22:30;28.20;75.10
1129;DHT22;553;51.038;7.216;2023-06-24T10:25:04;28.30;75.30
1129;DHT22;553;51.038;7.216;2023-06-24T10:27:41;28.40;74.00
1129;DHT22;553;51.038;7.216;2023-06-24T10:30:17;28.50;74.00
1129;DHT22;553;51.038;7.216;2023-06-24T10:32:44;28.10;74.60
1129;DHT22;553;51.038;7.216;2023-06-24T10:35:28;28.30;75.00
1129;DHT22;553;51.038;7.216;2023-06-24T10:38:00;28.40;71.80
1129;DHT22;553;51.038;7.216;2023-06-24T10:40:43;28.20;72.00
1129;DHT22;553;51.038;7.216;2023-06-24T10:43:28;28.10;73.90
1129;DHT22;553;51.038;7.216;2023-06-24T10:45:58;28.40;73.80
1129;DHT22;553;51.038;7.216;2023-06-24T10:48:26;28.50;72.30
1129;DHT22;553;51.038;7.216;2023-06-24T10:50:53;28.60;72.00
1129;DHT22;553;51.038;7.216;2023-06-24T10:53:21;28.70;71.10
1129;DHT22;553;51.038;7.216;2023-06-24T10:55:48;29.00;71.60
1129;DHT22;553;51.038;7.216;2023-06-24T10:58:15;29.20;68.60
1129;DHT22;553;51.038;7.216;2023-06-24T11:00:43;29.00;66.50
1129;DHT22;553;51.038;7.216;2023-06-24T11:03:12;28.60;67.90
1129;DHT22;553;51.038;7.216;2023-06-24T11:05:41;28.90;68.80
1129;DHT22;553;51.038;7.216;2023-06-24T11:08:09;28.80;68.20
1129;DHT22;553;51.038;7.216;2023-06-24T11:10:46;28.90;69.30
1129;DHT22;553;51.038;7.216;2023-06-24T11:13:13;29.10;66.30
1129;DHT22;553;51.038;7.216;2023-06-24T11:15:40;29.20;67.70
1129;DHT22;553;51.038;7.216;2023-06-24T11:18:09;29.20;68.00
1129;DHT22;553;51.038;7.216;2023-06-24T11:20:37;29.30;69.20
1129;DHT22;553;51.038;7.216;2023-06-24T11:23:09;29.50;68.30
1129;DHT22;553;51.038;7.216;2023-06-24T11:25:41;29.70;66.20
1129;DHT22;553;51.038;7.216;2023-06-24T11:28:18;29.50;66.50
1129;DHT22;553;51.038;7.216;2023-06-24T11:30:49;29.30;67.30
1129;DHT22;553;51.038;7.216;2023-06-24T11:33:27;29.10;66.70
1129;DHT22;553;51.038;7.216;2023-06-24T11:35:54;29.00;67.60
1129;DHT22;553;51.038;7.216;2023-06-24T11:38:21;29.10;68.10
1129;DHT22;553;51.038;7.216;2023-06-24T11:40:48;29.00;68.40
1129;DHT22;553;51.038;7.216;2023-06-24T11:43:15;29.00;67.60
1129;DHT22;553;51.038;7.216;2023-06-24T11:45:42;29.00;66.20
1129;DHT22;553;51.038;7.216;2023-06-24T11:48:08;29.10;67.20
1129;DHT22;553;51.038;7.216;2023-06-24T11:50:36;29.30;65.60
1129;DHT22;553;51.038;7.216;2023-06-24T11:53:04;29.10;64.80
1129;DHT22;553;51.038;7.216;2023-06-24T11:55:31;29.20;65.00
1129;DHT22;553;51.038;7.216;2023-06-24T11:58:00;29.30;65.20
1129;DHT22;553;51.038;7.216;2023-06-24T12:00:37;29.20;64.00
1129;DHT22;553;51.038;7.216;2023-06-24T12:03:06;29.20;64.10
1129;DHT22;553;51.038;7.216;2023-06-24T12:05:38;29.30;64.10
1129;DHT22;553;51.038;7.216;2023-06-24T12:08:09;29.40;64.00
1129;DHT22;553;51.038;7.216;2023-06-24T12:10:37;29.20;65.00
1129;DHT22;553;51.038;7.216;2023-06-24T12:13:06;29.20;64.80
1129;DHT22;553;51.038;7.216;2023-06-24T12:15:33;29.30;65.60
1129;DHT22;553;51.038;7.216;2023-06-24T12:18:01;29.00;64.90
1129;DHT22;553;51.038;7.216;2023-06-24T12:20:30;29.10;66.70
1129;DHT22;553;51.038;7.216;2023-06-24T12:23:02;29.20;66.30
1129;DHT22;553;51.038;7.216;2023-06-24T12:25:32;29.30;66.90
1129;DHT22;553;51.038;7.216;2023-06-24T12:27:59;29.40;62.90
1129;DHT22;553;51.038;7.216;2023-06-24T12:30:27;29.40;62.10
1129;DHT22;553;51.038;7.216;2023-06-24T12:32:53;29.60;62.50
1129;DHT22;553;51.038;7.216;2023-06-24T12:35:22;29.70;62.10
1129;DHT22;553;51.038;7.216;2023-06-24T12:37:52;29.80;62.50
1129;DHT22;553;51.038;7.216;2023-06-24T12:40:19;29.90;62.00
1129;DHT22;553;51.038;7.216;2023-06-24T12:42:45;29.90;61.30
1129;DHT22;553;51.038;7.216;2023-06-24T12:45:12;29.80;61.50
1129;DHT22;553;51.038;7.216;2023-06-24T12:47:40;29.70;60.70
1129;DHT22;553;51.038;7.216;2023-06-24T12:50:07;29.40;60.80
1129;DHT22;553;51.038;7.216;2023-06-24T12:52:35;29.50;61.40
1129;DHT22;553;51.038;7.216;2023-06-24T12:55:03;29.70;60.30
1129;DHT22;553;51.038;7.216;2023-06-24T12:57:30;29.70;61.30
1129;DHT22;553;51.038;7.216;2023-06-24T12:59:57;29.90;59.90
1129;DHT22;553;51.038;7.216;2023-06-24T13:02:24;30.00;60.00
1129;DHT22;553;51.038;7.216;2023-06-24T13:04:51;30.10;60.80
1129;DHT22;553;51.038;7.216;2023-06-24T13:07:18;30.20;60.50
1129;DHT22;553;51.038;7.216;2023-06-24T13:09:45;30.20;59.20
1129;DHT22;553;51.038;7.216;2023-06-24T13:12:11;30.20;60.10
1129;DHT22;553;51.038;7.216;2023-06-24T13:14:38;30.10;59.00
1129;DHT22;553;51.038;7.216;2023-06-24T13:17:05;30.20;59.80
1129;DHT22;553;51.038;7.216;2023-06-24T13:19:32;30.20;58.90
1129;DHT22;553;51.038;7.216;2023-06-24T13:21:59;30.10;58.40
1129;DHT22;553;51.038;7.216;2023-06-24T13:24:26;29.60;59.30
1129;DHT22;553;51.038;7.216;2023-06-24T13:26:53;29.70;59.70
1129;DHT22;553;51.038;7.216;2023-06-24T13:29:19;29.90;59.60
1129;DHT22;553;51.038;7.216;2023-06-24T13:31:47;30.00;59.30
1129;DHT22;553;51.038;7.216;2023-06-24T13:34:14;30.20;58.80
1129;DHT22;553;51.038;7.216;2023-06-24T13:36:41;30.20;57.30
1129;DHT22;553;51.038;7.216;2023-06-24T13:39:09;30.00;58.00
1129;DHT22;553;51.038;7.216;2023-06-24T13:41:39;30.00;58.80
1129;DHT22;553;51.038;7.216;2023-06-24T13:44:06;30.00;58.10
1129;DHT22;553;51.038;7.216;2023-06-24T13:46:33;29.90;59.10
1129;DHT22;553;51.038;7.216;2023-06-24T13:49:00;30.00;58.40
1129;DHT22;553;51.038;7.216;2023-06-24T13:51:31;30.00;59.30
1129;DHT22;553;51.038;7.216;2023-06-24T13:53:58;30.10;58.30
1129;DHT22;553;51.038;7.216;2023-06-24T13:56:25;29.90;58.80
1129;DHT22;553;51.038;7.216;2023-06-24T13:58:53;29.80;59.40
1129;DHT22;553;51.038;7.216;2023-06-24T14:01:21;29.80;58.80
1129;DHT22;553;51.038;7.216;2023-06-24T14:03:49;29.90;58.80
1129;DHT22;553;51.038;7.216;2023-06-24T14:06:18;29.80;58.40
1129;DHT22;553;51.038;7.216;2023-06-24T14:08:45;29.80;59.70
1129;DHT22;553;51.038;7.216;2023-06-24T14:11:12;29.80;59.70
1129;DHT22;553;51.038;7.216;2023-06-24T14:13:40;29.90;60.40
1129;DHT22;553;51.038;7.216;2023-06-24T14:16:07;30.00;59.90
1129;DHT22;553;51.038;7.216;2023-06-24T14:18:34;30.10;59.90
1129;DHT22;553;51.038;7.216;2023-06-24T14:21:03;30.10;58.70
1129;DHT22;553;51.038;7.216;2023-06-24T14:23:31;30.00;58.00
1129;DHT22;553;51.038;7.216;2023-06-24T14:25:58;29.60;57.80
1129;DHT22;553;51.038;7.216;2023-06-24T14:28:26;29.20;59.60
1129;DHT22;553;51.038;7.216;2023-06-24T14:30:53;29.40;60.50
1129;DHT22;553;51.038;7.216;2023-06-24T14:33:20;29.70;60.00
1129;DHT22;553;51.038;7.216;2023-06-24T14:35:47;29.90;59.90
1129;DHT22;553;51.038;7.216;2023-06-24T14:38:14;30.10;59.30
1129;DHT22;553;51.038;7.216;2023-06-24T14:40:40;30.00;59.10
1129;DHT22;553;51.038;7.216;2023-06-24T14:43:07;29.80;58.70
1129;DHT22;553;51.038;7.216;2023-06-24T14:45:34;29.70;59.40
1129;DHT22;553;51.038;7.216;2023-06-24T14:48:00;29.60;60.50
1129;DHT22;553;51.038;7.216;2023-06-24T14:50:28;29.70;58.40
1129;DHT22;553;51.038;7.216;2023-06-24T14:52:54;29.60;59.20
1129;DHT22;553;51.038;7.216;2023-06-24T14:55:21;29.60;60.00
1129;DHT22;553;51.038;7.216;2023-06-24T14:57:49;29.60;59.60
1129;DHT22;553;51.038;7.216;2023-06-24T15:00:16;29.70;59.90
1129;DHT22;553;51.038;7.216;2023-06-24T15:02:43;29.70;59.00
1129;DHT22;553;51.038;7.216;2023-06-24T15:05:10;29.70;59.30
1129;DHT22;553;51.038;7.216;2023-06-24T15:07:36;29.60;59.20
1129;DHT22;553;51.038;7.216;2023-06-24T15:10:05;29.60;59.10
1129;DHT22;553;51.038;7.216;2023-06-24T15:12:32;29.30;58.60
1129;DHT22;553;51.038;7.216;2023-06-24T15:15:01;29.20;58.90
1129;DHT22;553;51.038;7.216;2023-06-24T15:17:28;29.30;58.90
1129;DHT22;553;51.038;7.216;2023-06-24T15:19:56;29.30;58.30
1129;DHT22;553;51.038;7.216;2023-06-24T15:22:23;29.40;59.20
1129;DHT22;553;51.038;7.216;2023-06-24T15:24:50;29.30;58.80
1129;DHT22;553;51.038;7.216;2023-06-24T15:27:17;29.20;58.90
1129;DHT22;553;51.038;7.216;2023-06-24T15:29:44;29.30;58.80
1129;DHT22;553;51.038;7.216;2023-06-24T15:32:10;29.30;59.60
1129;DHT22;553;51.038;7.216;2023-06-24T15:34:37;29.40;58.10
1129;DHT22;553;51.038;7.216;2023-06-24T15:37:04;29.40;57.90
1129;DHT22;553;51.038;7.216;2023-06-24T15:39:31;29.30;58.20
1129;DHT22;553;51.038;7.216;2023-06-24T15:41:58;29.50;58.40
1129;DHT22;553;51.038;7.216;2023-06-24T15:44:24;29.60;58.10
1129;DHT22;553;51.038;7.216;2023-06-24T15:46:51;29.60;57.80
1129;DHT22;553;51.038;7.216;2023-06-24T15:49:18;29.70;57.30
1129;DHT22;553;51.038;7.216;2023-06-24T15:51:45;29.70;56.80
1129;DHT22;553;51.038;7.216;2023-06-24T15:54:12;29.50;57.50
1129;DHT22;553;51.038;7.216;2023-06-24T15:56:39;29.30;57.10
1129;DHT22;553;51.038;7.216;2023-06-24T15:59:05;29.40;57.00
1129;DHT22;553;51.038;7.216;2023-06-24T16:01:32;29.40;57.00
1129;DHT22;553;51.038;7.216;2023-06-24T16:03:59;29.60;57.10
1129;DHT22;553;51.038;7.216;2023-06-24T16:06:26;29.70;56.60
1129;DHT22;553;51.038;7.216;2023-06-24T16:08:52;29.60;55.70
1129;DHT22;553;51.038;7.216;2023-06-24T16:11:19;29.60;55.60
1129;DHT22;553;51.038;7.216;2023-06-24T16:13:46;29.50;55.20
1129;DHT22;553;51.038;7.216;2023-06-24T16:16:13;29.30;54.80
1129;DHT22;553;51.038;7.216;2023-06-24T16:18:40;29.30;55.80
1129;DHT22;553;51.038;7.216;2023-06-24T16:21:06;29.30;56.60
1129;DHT22;553;51.038;7.216;2023-06-24T16:23:33;29.30;56.50
1129;DHT22;553;51.038;7.216;2023-06-24T16:26:00;29.40;56.40
1129;DHT22;553;51.038;7.216;2023-06-24T16:28:28;29.30;56.90
1129;DHT22;553;51.038;7.216;2023-06-24T16:30:54;29.40;56.70
1129;DHT22;553;51.038;7.216;2023-06-24T16:33:21;29.50;56.40
1129;DHT22;553;51.038;7.216;2023-06-24T16:35:48;29.50;56.60